createdAt,value
2018-09-08T00:01:17.178Z,46.8
2018-09-08T00:06:25.204Z,46.8
2018-09-08T00:11:33.352Z,47
2018-09-08T00:26:57.533Z,47.1
2018-09-08T00:32:05.589Z,46.8
2018-09-08T00:37:13.755Z,47.3
2018-09-08T00:42:21.804Z,47.1
2018-09-08T00:47:29.779Z,46.9
2018-09-08T00:52:37.856Z,46.9
2018-09-08T00:57:45.946Z,47
2018-09-08T01:02:53.899Z,47
2018-09-08T01:08:01.963Z,47.3
2018-09-08T01:13:10.031Z,47
2018-09-08T01:18:18.080Z,47.5
2018-09-08T01:23:26.249Z,47.7
2018-09-08T01:28:34.330Z,47.7
2018-09-08T01:33:42.297Z,47.3
2018-09-08T01:38:50.345Z,47.8
2018-09-08T01:43:58.637Z,47.9
2018-09-08T01:49:06.431Z,47.7
2018-09-08T01:54:14.460Z,48.1
2018-09-08T02:09:38.611Z,47.7
2018-09-08T02:14:46.668Z,47.8
2018-09-08T02:19:54.735Z,47.7
2018-09-08T02:25:02.784Z,47.5
2018-09-08T02:30:10.915Z,47.8
2018-09-08T02:35:18.949Z,47.5
2018-09-08T02:40:27.039Z,47.8
2018-09-08T02:45:35.127Z,47.7
2018-09-08T02:50:43.380Z,48
2018-09-08T02:55:51.327Z,48.2
2018-09-08T03:00:59.406Z,48.1
2018-09-08T03:06:07.547Z,47.8
2018-09-08T03:11:15.847Z,48.1
2018-09-08T03:16:23.837Z,48.4
2018-09-08T03:21:31.913Z,48
2018-09-08T03:26:40.048Z,48.1
2018-09-08T03:31:48.195Z,48
2018-09-08T03:36:56.285Z,48.2
2018-09-08T03:47:12.647Z,48
2018-09-08T03:52:20.795Z,47.9
2018-09-08T04:02:37.353Z,48.7
2018-09-08T04:07:45.168Z,48.6
2018-09-08T04:12:53.350Z,49
2018-09-08T04:18:01.600Z,49.1
2018-09-08T04:23:09.718Z,49.5
2018-09-08T04:28:18.067Z,49.7
2018-09-08T04:38:34.409Z,50.3
2018-09-08T04:48:50.720Z,49.9
2018-09-08T04:59:07.640Z,51.5
2018-09-08T05:04:15.380Z,51.5
2018-09-08T05:09:23.480Z,52.1
2018-09-08T05:14:32.006Z,51.1
2018-09-08T05:19:39.900Z,51.8
2018-09-08T05:29:56.412Z,52.6
2018-09-08T05:35:04.539Z,52.2
2018-09-08T05:40:14.359Z,52.1
2018-09-08T05:45:20.852Z,52.3
2018-09-08T05:50:29.014Z,52.2
2018-09-08T06:00:45.253Z,52.5
2018-09-08T06:05:53.428Z,51.2
2018-09-08T06:11:01.406Z,51
2018-09-08T06:16:09.385Z,49.8
2018-09-08T06:21:17.367Z,49.2
2018-09-08T06:26:25.222Z,49.1
2018-09-08T06:31:33.270Z,47.7
2018-09-08T06:36:40.843Z,47.6
2018-09-08T06:41:48.584Z,47.2
2018-09-08T06:46:56.366Z,47
2018-09-08T06:52:03.960Z,46.5
2018-09-08T07:02:19.259Z,43.5
2018-09-08T07:17:41.513Z,41.7
2018-09-08T07:22:48.887Z,40.8
2018-09-08T07:27:56.229Z,39.8
2018-09-08T07:33:03.546Z,37
2018-09-08T07:38:10.819Z,37
2018-09-08T07:43:18.089Z,36.7
2018-09-08T07:48:25.376Z,36.5
2018-09-08T07:53:32.628Z,35.7
2018-09-08T07:58:39.880Z,35.7
2018-09-08T08:03:47.203Z,35.7
2018-09-08T08:08:54.356Z,35.8
2018-09-08T08:14:01.491Z,35.7
2018-09-08T08:24:15.744Z,34.7
2018-09-08T08:29:22.876Z,33
2018-09-08T08:34:30.180Z,32.9
2018-09-08T08:44:43.778Z,31
2018-09-08T08:49:50.721Z,30.8
2018-09-08T08:54:57.630Z,30
2018-09-08T09:00:04.513Z,28.9
2018-09-08T09:05:11.411Z,29.5
2018-09-08T09:10:18.755Z,29.2
2018-09-08T09:20:31.892Z,29.4
2018-09-08T09:25:38.687Z,29.3
2018-09-08T09:30:45.571Z,28.4
2018-09-08T09:35:52.367Z,28.8
2018-09-08T09:40:59.033Z,28.1
2018-09-08T09:46:05.835Z,28
2018-09-08T09:56:19.398Z,26.8
2018-09-08T10:01:26.279Z,26.8
2018-09-08T10:06:32.995Z,27.7
2018-09-08T10:11:39.802Z,28.5
2018-09-08T10:16:46.692Z,29.2
2018-09-08T10:21:53.668Z,30.7
2018-09-08T10:27:00.266Z,30.6
2018-09-08T10:37:14.042Z,29.4
2018-09-08T10:42:20.937Z,29.4
2018-09-08T10:47:27.842Z,28.9
2018-09-08T11:02:48.900Z,31.8
2018-09-08T11:07:55.882Z,32.2
2018-09-08T11:13:02.962Z,31.8
2018-09-08T11:18:10.101Z,31.8
2018-09-08T11:28:24.355Z,30.8
2018-09-08T11:33:32.692Z,29.9
2018-09-08T11:43:45.789Z,30.4
2018-09-08T11:48:53.429Z,30.4
2018-09-08T11:53:59.813Z,29.8
2018-09-08T11:59:06.894Z,31
2018-09-08T12:04:14.000Z,30.5
2018-09-08T12:09:21.163Z,30.1
2018-09-08T12:19:35.378Z,31.4
2018-09-08T12:24:42.531Z,31.6
2018-09-08T12:29:49.770Z,31.5
2018-09-08T12:34:56.890Z,30.9
2018-09-08T12:40:04.064Z,31.3
2018-09-08T12:50:18.553Z,31.2
2018-09-08T12:55:25.668Z,30.9
2018-09-08T13:00:32.780Z,31.4
2018-09-08T13:05:39.960Z,31.9
2018-09-08T13:10:47.293Z,32.2
2018-09-08T13:15:54.267Z,33.1
2018-09-08T13:21:01.346Z,29.1
2018-09-08T13:26:08.549Z,29.6
2018-09-08T13:31:15.616Z,29.4
2018-09-08T13:36:22.676Z,29.6
2018-09-08T13:46:37.041Z,29.8
2018-09-08T13:51:44.158Z,29.4
2018-09-08T14:01:58.525Z,29
2018-09-08T14:07:05.749Z,29.4
2018-09-08T14:12:12.992Z,29.8
2018-09-08T14:17:20.171Z,29.5
2018-09-08T14:22:27.457Z,29.6
2018-09-08T14:27:35.800Z,30.4
2018-09-08T14:32:41.982Z,30.6
2018-09-08T14:37:49.069Z,28.3
2018-09-08T14:42:56.314Z,28.9
2018-09-08T14:53:10.869Z,29.6
2018-09-08T14:58:18.318Z,28.3
2018-09-08T15:03:25.477Z,28.9
2018-09-08T15:08:32.801Z,29.2
2018-09-08T15:18:47.562Z,29
2018-09-08T15:23:54.762Z,28.9
2018-09-08T15:29:02.032Z,30.1
2018-09-08T15:34:10.687Z,29.7
2018-09-08T15:44:24.032Z,30.1
2018-09-08T15:49:31.413Z,30.4
2018-09-08T15:54:38.788Z,29.7
2018-09-08T15:59:46.293Z,30.1
2018-09-08T16:04:53.605Z,29.4
2018-09-08T16:10:01.292Z,29.8
2018-09-08T16:15:08.453Z,29.9
2018-09-08T16:20:19.000Z,29.7
2018-09-08T16:25:23.333Z,30.3
2018-09-08T16:30:30.755Z,29.9
2018-09-08T16:35:38.206Z,29.9
2018-09-08T16:40:45.875Z,29.7
2018-09-08T16:45:53.116Z,29.4
2018-09-08T16:51:00.568Z,29.4
2018-09-08T16:56:08.100Z,29.7
2018-09-08T17:01:15.637Z,29.5
2018-09-08T17:11:30.441Z,29.7
2018-09-08T17:16:37.910Z,29.3
2018-09-08T17:26:52.875Z,30.3
2018-09-08T17:32:00.358Z,30.8
2018-09-08T17:37:07.848Z,31
2018-09-08T17:42:15.560Z,30.3
2018-09-08T17:47:22.848Z,30.6
2018-09-08T17:52:30.377Z,30.3
2018-09-08T17:57:37.994Z,31.1
2018-09-08T18:02:45.405Z,30.4
2018-09-08T18:07:52.992Z,30.4
2018-09-08T18:13:00.420Z,31
2018-09-08T18:18:07.939Z,30.3
2018-09-08T18:23:15.459Z,30.9
2018-09-08T18:28:23.006Z,31.6
2018-09-08T18:33:30.597Z,30.9
2018-09-08T18:38:38.059Z,31
2018-09-08T18:43:45.641Z,31
2018-09-08T18:48:53.462Z,31.2
2018-09-08T18:54:00.796Z,31.4
2018-09-08T18:59:08.360Z,31.5
2018-09-08T19:09:23.565Z,31.7
2018-09-08T19:19:38.818Z,32.4
2018-09-08T19:24:46.409Z,32.1
2018-09-08T19:29:54.044Z,32.1
2018-09-08T19:35:01.713Z,33
2018-09-08T19:40:09.728Z,33
2018-09-08T19:45:16.990Z,33.2
2018-09-08T19:50:24.648Z,33.2
2018-09-08T20:00:40.557Z,33.2
2018-09-08T20:05:47.600Z,33.7
2018-09-08T20:10:55.236Z,33.5
2018-09-08T20:16:02.940Z,33.4
2018-09-08T20:21:10.694Z,34
2018-09-08T20:26:18.303Z,34.1
2018-09-08T20:31:26.029Z,33.8
2018-09-08T20:36:33.690Z,34.3
2018-09-08T20:41:41.382Z,34
2018-09-08T20:51:56.837Z,34.3
2018-09-08T20:57:04.561Z,34.6
2018-09-08T21:02:12.355Z,35
2018-09-08T21:07:19.986Z,35.3
2018-09-08T21:17:35.458Z,35.9
2018-09-08T21:22:43.201Z,35.5
2018-09-08T21:27:51.021Z,36.1
2018-09-08T21:32:59.069Z,35.8
2018-09-08T21:38:06.423Z,35.8
2018-09-08T21:43:14.168Z,36.3
2018-09-08T21:48:21.920Z,36.3
2018-09-08T21:53:29.668Z,36.2
2018-09-08T21:58:37.369Z,36.2
2018-09-08T22:03:45.094Z,36.8
2018-09-08T22:08:52.902Z,35.8
2018-09-08T22:14:01.033Z,36.1
2018-09-08T22:24:16.074Z,36.4
2018-09-08T22:34:31.587Z,36.5
2018-09-08T22:39:39.385Z,36.3
2018-09-08T22:44:47.081Z,36.2
2018-09-08T22:49:54.834Z,36.3
2018-09-08T22:55:02.617Z,36.2
2018-09-08T23:00:10.372Z,36.8
2018-09-08T23:05:18.151Z,37.6
2018-09-08T23:10:25.903Z,37.4
2018-09-08T23:15:33.664Z,37.2
2018-09-08T23:20:41.467Z,37.7
2018-09-08T23:25:49.193Z,37.2
2018-09-08T23:30:56.947Z,37.8
2018-09-08T23:36:04.718Z,37.7
2018-09-08T23:41:12.533Z,37.5
2018-09-08T23:46:20.305Z,37.7
2018-09-08T23:51:28.074Z,37.7
2018-09-08T23:56:35.815Z,37.6
